Flight Track Log - Related Links

Times and Time Zones

All times are in EDT time to prevent confusion due to time zone crossing. See the N8752E flight status page for this flight to view local times or setup timezone preferences in your user account.


Time Position Orientation Groundspeed Altitude Reporting Facility
EDT Latitude Longitude Course Direction KTS MPH feet Rate Location/Type
Mon 04:24:48 PM 40.7667 -73.0667 57° Northeast 98 113 1,100  Level New York TRACON
Mon 04:26:00 PM 40.7499 -73.1249 260° West  Level Estimated
Mon 04:26:48 PM 40.7833 -73.0333 260° West 108 124 2,300  Level New York TRACON
Mon 04:28:00 PM 40.8134 -72.9853 50° Northeast  Level FlightAware Approximate
Mon 04:29:48 PM 40.8167 -73.1333 263° West 100 115 4,300  Level New York TRACON
Mon 04:30:00 PM 40.9015 -72.8304 57° Northeast  Level FlightAware Approximate
Mon 04:31:00 PM 40.8255 -73.1946 281° West  Level FlightAware Approximate
Mon 04:31:48 PM 40.8333 -73.2167 281° West 105 121 5,600  Level New York TRACON
Mon 04:32:48 PM 40.8333 -73.2500 270° West 109 125 6,100 250 Climbing New York TRACON
Mon 04:33:48 PM 40.8500 -73.3000 294° West 135 155 6,100  Level New York TRACON
Mon 04:34:48 PM 40.8500 -73.3500 270° West 147 169 6,100  Level New York TRACON
Mon 04:35:00 PM 40.9106 -72.8442 263° West  Level FlightAware Approximate
Mon 04:35:48 PM 40.8500 -73.4000 270° West 149 171 6,100  Level New York TRACON
Mon 04:36:48 PM 40.8500 -73.4500 270° West 148 170 6,100  Level New York TRACON
Mon 04:38:00 PM 40.8380 -73.5103 255° West  Level FlightAware Approximate
Mon 04:38:48 PM 40.8333 -73.5500 255° West 148 170 6,100  Level New York TRACON
Mon 04:39:48 PM 40.8000 -73.5833 217° Southwest 146 168 6,100  Level New York TRACON
Mon 04:40:48 PM 40.7667 -73.6167 217° Southwest 146 168 6,100  Level New York TRACON
Mon 04:41:48 PM 40.7333 -73.6500 217° Southwest 146 168 6,100  Level New York TRACON
Mon 04:42:48 PM 40.7000 -73.6833 217° Southwest 145 167 6,100  Level New York TRACON
Mon 04:44:00 PM 40.6624 -73.7209 217° Southwest  Level FlightAware Approximate
Mon 04:44:48 PM 40.6500 -73.7500 217° Southwest 122 140 6,100  Level New York TRACON
Mon 04:46:00 PM 40.6050 -73.7750 208° Southwest  Level FlightAware Approximate
Mon 04:47:48 PM 40.5333 -73.8333 208° Southwest 142 163 6,100  Level New York TRACON
Mon 04:49:48 PM 40.4667 -73.9000 217° Southwest 144 166 6,100  Level New York TRACON
Mon 04:50:48 PM 40.4333 -73.9167 201° Southwest 144 166 6,100 -111 Level New York TRACON
Mon 04:52:00 PM 40.3906 -73.9430 205° Southwest  Level FlightAware Approximate
Mon 04:53:00 PM 40.3628 -73.9469 208° Southwest  Level FlightAware Approximate
Mon 04:59:00 PM 40.1354 -74.1240 201° Southwest  Level FlightAware Approximate
Mon 05:00:00 PM 40.0956 -74.1439 201° Southwest  Level FlightAware Approximate
Mon 05:01:00 PM 40.0617 -74.1760 223° Southwest  Level FlightAware Approximate
Mon 05:02:00 PM 40.0303 -74.2137 223° Southwest  Level FlightAware Approximate
Mon 05:03:00 PM 39.9988 -74.2511 215° Southwest  Level FlightAware Approximate
Mon 05:04:00 PM 39.9639 -74.2829 215° Southwest  Level FlightAware Approximate
Mon 05:05:00 PM 39.9290 -74.3146 215° Southwest  Level FlightAware Approximate
Mon 05:06:00 PM 39.8941 -74.3464 215° Southwest  Level FlightAware Approximate
Mon 05:07:00 PM 39.8592 -74.3781 215° Southwest  Level FlightAware Approximate
Mon 05:07:47 PM 39.8533 -74.4022 237° Southwest 143 165 4,100  Level Washington Center
Mon 05:08:00 PM 39.8243 -74.4098 215° Southwest  Level FlightAware Approximate
Mon 05:09:00 PM 39.7985 -74.4530 237° Southwest  Level FlightAware Approximate
Mon 05:09:00 PM 39.8209 -74.4548 231° Southwest  Level FlightAware Approximate
Mon 05:10:00 PM 39.7753 -74.4995 237° Southwest  Level FlightAware Approximate
Mon 05:11:00 PM 39.7522 -74.5459 237° Southwest  Level FlightAware Approximate
Mon 05:11:50 PM 39.7508 -74.5633 203° Southwest 151 174 4,100  Level Washington Center
Mon 05:12:00 PM 39.7289 -74.5923 237° Southwest  Level FlightAware Approximate
Mon 05:13:00 PM 39.7057 -74.6386 237° Southwest  Level FlightAware Approximate
Mon 05:14:00 PM 39.7382 -74.6821 237° Southwest  Level Estimated
Mon 05:15:50 PM 39.6583 -74.7397 229° Southwest 152 175 4,000  Level Washington Center
Mon 05:16:00 PM 39.7724 -74.8374 237° Southwest  Level Estimated
Mon 05:17:00 PM 39.7332 -74.8587 203° Southwest  Level FlightAware Approximate
Mon 05:17:00 PM 39.6295 -74.7922 235° Southwest  Level FlightAware Approximate
Mon 05:20:14 PM 39.5492 -74.9350 241° Southwest 148 170 4,000  Level Washington Center
Mon 05:21:00 PM 39.6965 -75.0657 229° Southwest  Level Estimated
Mon 05:22:00 PM 39.5013 -75.0102 230° Southwest  Level FlightAware Approximate
Mon 05:24:00 PM 39.4462 -75.0974 229° Southwest  Level FlightAware Approximate
Mon 05:25:00 PM 39.4222 -75.1426 241° Southwest  Level FlightAware Approximate
Mon 05:26:00 PM 39.4016 -75.1907 241° Southwest  Level FlightAware Approximate
Mon 05:29:00 PM 39.4909 -75.3961 231° Southwest  Level Estimated
Mon 05:30:00 PM 39.4501 -75.4116 196° South  Level FlightAware Approximate
Mon 05:31:00 PM 39.4092 -75.4271 196° South  Level FlightAware Approximate
Mon 05:32:00 PM 39.3684 -75.4426 196° South  Level FlightAware Approximate
Mon 05:33:00 PM 39.3702 -75.4976 263° West  Level Estimated
Mon 05:34:00 PM 39.3454 -75.5424 234° Southwest  Level FlightAware Approximate
Mon 05:35:00 PM 39.3206 -75.5871 234° Southwest  Level FlightAware Approximate
Mon 05:35:44 PM 39.2167 -75.6333 240° Southwest 160 184 4,000  Level Potomac TRACON
Mon 05:36:00 PM 39.2958 -75.6318 234° Southwest  Level FlightAware Approximate
Mon 05:36:38 PM 39.2167 -75.6833 270° West 162 186 4,000  Level Potomac TRACON
Mon 05:37:00 PM 39.2709 -75.6764 234° Southwest  Level FlightAware Approximate
Mon 05:37:32 PM 39.2000 -75.7333 247° West 159 183 4,000  Level Potomac TRACON
Mon 05:38:00 PM 39.2461 -75.7210 234° Southwest  Level FlightAware Approximate
Mon 05:38:32 PM 39.2000 -75.8000 270° West 164 189 4,000  Level Potomac TRACON
Mon 05:39:00 PM 39.2521 -75.7754 270° West  Level Estimated
Mon 05:39:32 PM 39.2000 -75.8500 270° West 161 185 4,100  Level Potomac TRACON
Mon 05:40:00 PM 39.2581 -75.8299 263° West  Level Estimated
Mon 05:40:32 PM 39.1833 -75.9167 252° West 149 171 4,400  Level Potomac TRACON
Mon 05:41:00 PM 39.2368 -75.8774 240° Southwest  Level FlightAware Approximate
Mon 05:41:32 PM 39.1833 -75.9667 270° West 148 170 4,800  Level Potomac TRACON
Mon 05:42:32 PM 39.1833 -76.0167 270° West 148 170 5,200 400 Climbing Potomac TRACON
Mon 05:43:32 PM 39.1667 -76.0667 247° West 148 170 5,600 347 Climbing Potomac TRACON
Mon 05:44:33 PM 39.1667 -76.1167 270° West 149 171 5,900 209 Climbing Potomac TRACON
Mon 05:45:27 PM 39.1667 -76.1667 270° West 158 182 6,000 53 Climbing Potomac TRACON
Mon 05:46:27 PM 39.1500 -76.2333 252° West 165 190 6,000  Level Potomac TRACON
Mon 05:47:33 PM 39.1500 -76.2833 270° West 169 194 6,000  Level Potomac TRACON
Mon 05:49:00 PM 39.1538 -76.3644 273° West  Level FlightAware Approximate
Mon 05:49:33 PM 39.1667 -76.4167 273° West 169 194 6,000  Level Potomac TRACON
Mon 05:51:27 PM 39.1667 -76.5333 270° West 167 192 6,000  Level Potomac TRACON
Mon 05:52:27 PM 39.1833 -76.5833 293° West 170 196 6,000  Level Potomac TRACON
Mon 05:53:22 PM 39.2000 -76.6333 293° West 173 199 6,000 52 Level Potomac TRACON
Mon 05:54:22 PM 39.2167 -76.6833 293° West 180 207 6,100  Climbing Potomac TRACON
Mon 05:56:17 PM 39.2667 -76.7833 303° West 176 203 6,000 -33 Descending Potomac TRACON
Mon 05:57:23 PM 39.2833 -76.8500 288° West 174 200 6,000  Level Potomac TRACON
Mon 05:58:17 PM 39.2833 -76.9000 270° West 168 193 6,000 -298 Level Potomac TRACON
Mon 05:59:24 PM 39.2833 -76.9833 270° West 176 203 5,400 -431 Descending Potomac TRACON
Mon 06:01:18 PM 39.3000 -77.1000 280° West 184 212 4,700 -379 Descending Potomac TRACON
Mon 06:02:18 PM 39.3000 -77.1500 270° West 181 208 4,300 -400 Descending Potomac TRACON
Mon 06:04:18 PM 39.3000 -77.2833 270° West 177 204 3,500 -325 Descending Potomac TRACON
Mon 06:06:18 PM 39.2833 -77.4000 260° West 172 198 3,000 -167 Descending Potomac TRACON
Mon 06:07:18 PM 39.2833 -77.4667 270° West 165 190 3,000  Level Potomac TRACON
Mon 06:08:18 PM 39.3167 -77.4833 339° North 186 214 3,000  Level Potomac TRACON
Mon 06:09:18 PM 39.3333 -77.4667 38° Northeast 138 159 3,000 -651 Level Potomac TRACON
Mon 06:11:13 PM 39.3833 -77.4000 46° Northeast 114 131 1,100 -991 Descending Potomac TRACON
Mon 06:13:00 PM 39.4167 -77.3667 11° North  Level FlightAware Approximate
Mon 06:20:00 PM 39.4176 -77.3743 11° North  Level Estimated
Mon 06:21:00 PM 39.4167 -77.3667 11° North  Level FlightAware Approximate
Mon 06:22:00 PM 39.4176 -77.3743 11° North  Level Estimated
Mon 06:23:00 PM 39.4167 -77.3667 11° North  Level FlightAware Approximate
Mon 06:24:00 PM 39.4176 -77.3743 11° North  Level Estimated

Login

Don't have an account? Register now (free) for customized features, flight alerts, and more!